.
WxDataArchive / Data Records for 2015-02-23
2015-02-22 February 2015 2015-02-24

Data Records for Monday, 23 February 2015

Time	Temp	Chill	HIndex	Humid	Dewpt	 Wind 	HiWind	WindDir	Rain 	Barom
-----	----	-----	------	-----	-----	------	------	-------	-----	-----
00:00	8.6	8.6	8.6	67	-0.1	0	1	270	0.00	30.581 
00:05	8.4	8.4	8.4	67	-0.3	0	1	270	0.00	30.581 
00:10	8.3	8.3	8.3	68	-0.0	0	1	270	0.00	30.581 
00:15	8.3	8.3	8.3	68	-0.0	0	1	270	0.00	30.587 
00:20	8.1	8.1	8.1	68	-0.2	0	1	270	0.00	30.587 
00:25	7.9	7.9	7.9	69	-0.1	0	1	270	0.00	30.587 
00:30	7.7	7.7	7.7	69	-0.3	0	1	270	0.00	30.591 
00:35	7.7	7.7	7.7	69	-0.3	0	1	270	0.00	30.591 
00:40	7.6	7.6	7.6	69	-0.4	0	1	270	0.00	30.591 
00:45	7.4	7.4	7.4	69	-0.6	0	1	270	0.00	30.595 
00:50	7.2	7.2	7.2	69	-0.8	0	0	---	0.00	30.595 
00:55	7.0	7.0	7.0	69	-1.0	0	0	---	0.00	30.595 
01:00	6.7	6.7	6.7	69	-1.3	0	0	---	0.00	30.599 
01:05	6.5	6.5	6.5	70	-1.2	0	0	---	0.00	30.599 
01:10	6.3	6.3	6.3	70	-1.4	0	0	---	0.00	30.599 
01:15	6.0	6.0	6.0	70	-1.6	0	0	---	0.00	30.611 
01:20	5.8	5.8	5.8	71	-1.5	0	0	---	0.00	30.611 
01:25	5.8	5.8	5.8	71	-1.5	0	0	---	0.00	30.611 
01:30	5.6	5.6	5.6	71	-1.7	0	0	---	0.00	30.622 
01:35	5.4	5.4	5.4	71	-1.9	0	0	---	0.00	30.622 
01:40	5.0	5.0	5.0	71	-2.3	0	0	---	0.00	30.622 
01:45	4.5	4.5	4.5	71	-2.8	0	0	---	0.00	30.623 
01:50	4.1	4.1	4.1	71	-3.2	0	0	---	0.00	30.623 
01:55	3.7	3.7	3.7	72	-3.3	0	0	---	0.00	30.623 
02:00	3.5	3.5	3.5	73	-3.2	0	0	---	0.00	30.628 
02:05	3.4	3.4	3.4	73	-3.3	0	0	---	0.00	30.628 
02:10	3.2	3.2	3.2	73	-3.5	0	0	---	0.00	30.628 
02:15	3.0	3.0	3.0	74	-3.4	0	0	---	0.00	30.638 
02:20	2.8	2.8	2.8	74	-3.6	0	0	---	0.00	30.638 
02:25	2.6	2.6	2.6	74	-3.8	0	0	---	0.00	30.638 
02:30	2.2	2.2	2.2	74	-4.2	0	0	---	0.00	30.636 
02:35	2.0	2.0	2.0	75	-4.1	0	0	---	0.00	30.636 
02:40	1.8	1.8	1.8	75	-4.3	0	0	---	0.00	30.636 
02:45	1.7	1.7	1.7	75	-4.4	0	0	---	0.00	30.642 
02:50	1.5	1.5	1.5	75	-4.6	0	0	---	0.00	30.642 
02:55	1.3	1.3	1.3	76	-4.5	0	0	---	0.00	30.642 
03:00	0.9	0.9	0.9	76	-4.9	0	0	---	0.00	30.644 
03:05	0.7	0.7	0.7	76	-5.1	0	0	---	0.00	30.644 
03:10	0.5	0.5	0.5	76	-5.2	0	0	---	0.00	30.644 
03:15	0.3	0.3	0.3	76	-5.4	0	0	---	0.00	30.645 
03:20	0.0	0.0	0.0	76	-5.7	0	0	---	0.00	30.645 
03:25	-0.2	-0.2	-0.2	76	-5.9	0	0	---	0.00	30.645 
03:30	-0.6	-0.6	-0.6	76	-6.3	0	0	---	0.00	30.640 
03:35	-0.8	-0.8	-0.8	76	-6.5	0	0	---	0.00	30.640 
03:40	-1.0	-1.0	-1.0	76	-6.7	0	0	---	0.00	30.640 
03:45	-1.2	-1.2	-1.2	77	-6.6	0	0	---	0.00	30.646 
03:50	-1.4	-1.4	-1.4	77	-6.8	0	0	---	0.00	30.646 
03:55	-1.4	-1.4	-1.4	77	-6.8	0	0	---	0.00	30.646 
04:00	-1.6	-1.6	-1.6	77	-7.0	0	0	---	0.00	30.649 
04:05	-1.8	-1.8	-1.8	77	-7.2	0	0	---	0.00	30.649 
04:10	-2.0	-2.0	-2.0	77	-7.4	0	0	---	0.00	30.649 
04:15	-2.2	-2.2	-2.2	77	-7.6	0	0	---	0.00	30.651 
04:20	-2.2	-2.2	-2.2	77	-7.6	0	0	---	0.00	30.651 
04:25	-2.2	-2.2	-2.2	77	-7.6	0	0	---	0.00	30.651 
04:30	-2.2	-2.2	-2.2	77	-7.6	0	0	---	0.00	30.649 
04:35	-2.4	-2.4	-2.4	77	-7.8	0	0	---	0.00	30.649 
04:40	-2.6	-2.6	-2.6	77	-8.0	0	0	---	0.00	30.649 
04:45	-2.8	-2.8	-2.8	77	-8.2	0	0	---	0.00	30.652 
04:50	-2.8	-2.8	-2.8	77	-8.2	0	0	---	0.00	30.652 
04:55	-3.1	-3.1	-3.1	77	-8.5	0	0	---	0.00	30.652 
05:00	-3.1	-3.1	-3.1	77	-8.5	0	0	---	0.00	30.656 
05:05	-3.1	-3.1	-3.1	77	-8.5	0	0	---	0.00	30.656 
05:10	-3.1	-3.1	-3.1	77	-8.5	0	0	---	0.00	30.656 
05:15	-3.3	-3.3	-3.3	77	-8.7	0	0	---	0.00	30.664 
05:20	-3.5	-3.5	-3.5	77	-8.9	0	0	---	0.00	30.664 
05:25	-3.5	-3.5	-3.5	77	-8.9	0	0	---	0.00	30.664 
05:30	-3.9	-3.9	-3.9	77	-9.3	0	0	---	0.00	30.669 
05:35	-3.9	-3.9	-3.9	77	-9.3	0	0	---	0.00	30.669 
05:40	-4.1	-4.1	-4.1	77	-9.5	0	0	---	0.00	30.669 
05:45	-4.1	-4.1	-4.1	77	-9.5	0	0	---	0.00	30.672 
05:50	-4.3	-4.3	-4.3	77	-9.6	0	0	---	0.00	30.672 
05:55	-4.3	-4.3	-4.3	77	-9.6	0	0	---	0.00	30.672 
06:00	-4.3	-4.3	-4.3	77	-9.6	0	0	---	0.00	30.674 
06:05	-4.3	-4.3	-4.3	78	-9.4	0	0	---	0.00	30.674 
06:10	-4.3	-4.3	-4.3	78	-9.4	0	0	---	0.00	30.674 
06:15	-4.3	-4.3	-4.3	78	-9.4	0	0	---	0.00	30.675 
06:20	-4.1	-4.1	-4.1	78	-9.2	0	0	---	0.00	30.675 
06:25	-4.3	-4.3	-4.3	77	-9.6	0	0	---	0.00	30.675 
06:30	-4.3	-4.3	-4.3	77	-9.6	0	0	---	0.00	30.675 
06:35	-4.6	-4.6	-4.6	77	-9.9	0	0	---	0.00	30.675 
06:40	-4.6	-4.6	-4.6	77	-9.9	0	0	---	0.00	30.675 
06:45	-4.8	-4.8	-4.8	77	-10.1	0	0	---	0.00	30.681 
06:50	-5.0	-5.0	-5.0	77	-10.3	0	0	---	0.00	30.681 
06:55	-5.0	-5.0	-5.0	77	-10.3	0	0	---	0.00	30.681 
07:00	-5.2	-5.2	-5.2	77	-10.5	0	0	---	0.00	30.683 
07:05	-5.2	-5.2	-5.2	77	-10.5	0	0	---	0.00	30.683 
07:10	-5.2	-5.2	-5.2	77	-10.5	0	0	---	0.00	30.683 
07:15	-5.2	-5.2	-5.2	77	-10.5	0	0	---	0.00	30.683 
07:20	-5.2	-5.2	-5.2	77	-10.5	0	0	---	0.00	30.683 
07:25	-5.4	-5.4	-5.4	77	-10.7	0	0	---	0.00	30.683 
07:30	-5.2	-5.2	-5.2	77	-10.5	0	0	---	0.00	30.689 
07:35	-5.0	-5.0	-5.0	78	-10.1	0	0	---	0.00	30.689 
07:40	-5.0	-5.0	-5.0	78	-10.1	0	0	---	0.00	30.689 
07:45	-4.8	-4.8	-4.8	78	-9.9	0	0	---	0.00	30.690 
07:50	-4.6	-4.6	-4.6	78	-9.7	0	0	---	0.00	30.690 
07:55	-4.3	-4.3	-4.3	78	-9.4	0	0	---	0.00	30.690 
08:00	-4.1	-4.1	-4.1	78	-9.2	0	0	---	0.00	30.695 
08:05	-3.7	-3.7	-3.7	79	-8.5	0	0	---	0.00	30.695 
08:10	-3.1	-3.1	-3.1	80	-7.7	0	0	---	0.00	30.695 
08:15	-2.0	-2.0	-2.0	81	-6.4	0	0	---	0.00	30.700 
08:20	-1.2	-1.2	-1.2	81	-5.6	0	0	---	0.00	30.700 
08:25	-0.2	-0.2	-0.2	81	-4.6	0	1	270	0.00	30.700 
08:30	0.5	0.5	0.5	81	-3.9	0	0	---	0.00	30.703 
08:35	0.9	0.9	0.9	80	-3.8	0	1	270	0.00	30.703 
08:40	1.5	1.5	1.5	80	-3.2	0	2	270	0.00	30.703 
08:45	1.8	1.8	1.8	79	-3.2	0	1	270	0.00	30.707 
08:50	1.8	1.8	1.8	78	-3.4	0	2	270	0.00	30.707 
08:55	2.2	2.2	2.2	78	-3.1	0	1	270	0.00	30.707 
09:00	2.6	2.6	2.6	77	-2.9	1	4	270	0.00	30.717 
09:05	3.0	3.0	3.0	74	-3.4	1	4	112	0.00	30.717 
09:10	3.4	3.4	3.4	73	-3.3	1	5	112	0.00	30.717 
09:15	3.5	3.5	3.5	71	-3.8	1	4	112	0.00	30.724 
09:20	3.5	3.5	3.5	69	-4.4	1	5	112	0.00	30.724 
09:25	3.9	3.9	3.9	69	-4.0	0	2	112	0.00	30.724 
09:30	4.1	4.1	4.1	66	-4.7	1	3	112	0.00	30.720 
09:35	4.5	4.5	4.5	64	-5.0	1	4	112	0.00	30.720 
09:40	4.5	4.5	4.5	63	-5.3	1	3	90	0.00	30.720 
09:45	4.5	4.5	4.5	61	-5.9	2	5	90	0.00	30.722 
09:50	4.5	4.5	4.5	61	-5.9	2	6	112	0.00	30.722 
09:55	4.3	4.3	4.3	60	-6.5	2	5	90	0.00	30.722 
10:00	4.3	4.3	4.3	59	-6.8	2	5	112	0.00	30.728 
10:05	4.3	4.3	4.3	59	-6.8	2	4	90	0.00	30.728 
10:10	4.8	4.8	4.8	58	-6.7	1	4	90	0.00	30.728 
10:15	4.8	4.8	4.8	58	-6.7	1	4	90	0.00	30.724 
10:20	5.4	5.4	5.4	57	-6.5	1	3	90	0.00	30.724 
10:25	5.8	5.8	5.8	56	-6.5	1	3	90	0.00	30.724 
10:30	5.6	5.6	5.6	56	-6.7	2	4	90	0.00	30.728 
10:35	5.6	5.6	5.6	56	-6.7	1	4	90	0.00	30.728 
10:40	5.6	5.6	5.6	56	-6.7	1	2	90	0.00	30.728 
10:45	6.3	6.3	6.3	56	-6.0	1	3	90	0.00	30.727 
10:50	6.5	6.5	6.5	56	-5.8	1	4	90	0.00	30.727 
10:55	6.9	6.9	6.9	56	-5.4	1	3	90	0.00	30.727 
11:00	6.9	6.9	6.9	55	-5.8	1	5	90	0.00	30.718 
11:05	7.0	7.0	7.0	55	-5.7	1	2	90	0.00	30.718 
11:10	7.6	7.6	7.6	54	-5.5	1	3	90	0.00	30.718 
11:15	8.1	8.1	8.1	55	-4.7	0	1	90	0.00	30.723 
11:20	8.6	8.6	8.6	55	-4.2	1	2	90	0.00	30.723 
11:25	9.3	9.3	9.3	54	-3.9	0	3	90	0.00	30.723 
11:30	9.2	9.2	9.2	53	-4.4	1	3	90	0.00	30.720 
11:35	9.3	9.3	9.3	53	-4.3	1	3	90	0.00	30.720 
11:40	9.3	9.3	9.3	53	-4.3	1	2	90	0.00	30.720 
11:45	9.2	9.2	9.2	53	-4.4	0	2	90	0.00	30.717 
11:50	9.3	9.3	9.3	53	-4.3	1	3	90	0.00	30.717 
11:55	9.0	9.0	9.0	52	-5.0	1	4	90	0.00	30.717 
12:00	8.8	8.8	8.8	52	-5.2	1	4	90	0.00	30.712 
12:05	8.4	8.4	8.4	51	-6.0	1	3	90	0.00	30.712 
12:10	8.3	8.3	8.3	52	-5.7	1	4	90	0.00	30.712 
12:15	8.4	8.4	8.4	52	-5.6	0	2	112	0.00	30.713 
12:20	9.0	9.0	9.0	51	-5.4	0	3	158	0.00	30.713 
12:25	9.2	9.2	9.2	51	-5.2	1	4	112	0.00	30.713 
12:30	9.0	9.0	9.0	51	-5.4	1	3	112	0.00	30.702 
12:35	8.8	8.8	8.8	51	-5.6	1	4	112	0.00	30.702 
12:40	8.8	8.8	8.8	51	-5.6	1	3	112	0.00	30.702 
12:45	9.2	9.2	9.2	51	-5.2	0	2	112	0.00	30.693 
12:50	9.5	9.5	9.5	51	-4.9	1	3	112	0.00	30.693 
12:55	9.7	9.7	9.7	51	-4.8	1	2	112	0.00	30.693 
13:00	9.7	9.7	9.7	50	-5.2	1	5	112	0.00	30.686 
13:05	9.5	9.5	9.5	51	-4.9	1	4	112	0.00	30.686 
13:10	9.5	9.5	9.5	51	-4.9	1	4	112	0.00	30.686 
13:15	9.3	9.3	9.3	51	-5.1	0	3	112	0.00	30.676 
13:20	9.3	9.3	9.3	52	-4.7	1	3	112	0.00	30.676 
13:25	9.2	9.2	9.2	53	-4.4	1	4	90	0.00	30.676 
13:30	9.0	9.0	9.0	53	-4.6	2	6	90	0.00	30.673 
13:35	9.0	9.0	9.0	54	-4.2	1	3	90	0.00	30.673 
13:40	9.0	9.0	9.0	54	-4.2	2	6	112	0.00	30.673 
13:45	8.6	8.6	8.6	55	-4.2	2	4	112	0.00	30.662 
13:50	8.6	8.6	8.6	55	-4.2	2	5	112	0.00	30.662 
13:55	8.6	8.6	8.6	55	-4.2	2	6	90	0.00	30.662 
14:00	9.2	9.2	9.2	56	-3.3	2	7	90	0.00	30.653 
14:05	9.5	9.5	9.5	55	-3.4	1	4	112	0.00	30.653 
14:10	9.5	9.5	9.5	55	-3.4	1	6	90	0.00	30.653 
14:15	9.7	9.7	9.7	55	-3.2	2	5	112	0.00	30.647 
14:20	9.7	9.7	9.7	56	-2.8	3	7	90	0.00	30.647 
14:25	9.7	9.7	9.7	55	-3.2	2	6	90	0.00	30.647 
14:30	10.0	10.0	10.0	55	-2.9	1	3	90	0.00	30.632 
14:35	10.4	10.4	10.4	55	-2.5	1	3	68	0.00	30.632 
14:40	10.5	10.5	10.5	54	-2.8	1	3	112	0.00	30.632 
14:45	10.5	10.5	10.5	54	-2.8	1	4	90	0.00	30.628 
14:50	10.7	10.7	10.7	54	-2.6	1	3	90	0.00	30.628 
14:55	10.7	10.7	10.7	54	-2.6	1	3	112	0.00	30.628 
15:00	10.5	10.5	10.5	53	-3.2	2	5	112	0.00	30.624 
15:05	10.4	10.4	10.4	54	-2.9	1	3	90	0.00	30.624 
15:10	10.5	10.5	10.5	54	-2.8	1	5	90	0.00	30.624 
15:15	10.7	10.7	10.7	54	-2.6	1	4	112	0.00	30.622 
15:20	10.9	10.9	10.9	54	-2.4	2	5	112	0.00	30.622 
15:25	11.1	11.1	11.1	55	-1.9	1	4	112	0.00	30.622 
15:30	11.2	11.2	11.2	54	-2.2	1	5	90	0.00	30.617 
15:35	11.1	11.1	11.1	54	-2.3	1	5	90	0.00	30.617 
15:40	11.1	11.1	11.1	55	-1.9	2	4	90	0.00	30.617 
15:45	11.2	11.2	11.2	56	-1.4	1	4	90	0.00	30.615 
15:50	11.6	11.6	11.6	55	-1.4	1	4	90	0.00	30.615 
15:55	11.6	11.6	11.6	54	-1.8	2	5	90	0.00	30.615 
16:00	11.6	11.6	11.6	54	-1.8	1	4	90	0.00	30.600 
16:05	11.6	11.6	11.6	54	-1.8	2	4	90	0.00	30.600 
16:10	11.2	11.2	11.2	54	-2.2	0	4	90	0.00	30.600 
16:15	11.4	11.4	11.4	55	-1.6	1	2	90	0.00	30.599 
16:20	11.7	11.7	11.7	54	-1.7	0	2	90	0.00	30.599 
16:25	11.9	11.9	11.9	54	-1.5	0	2	90	0.00	30.599 
16:30	12.3	12.3	12.3	54	-1.1	1	5	90	0.00	30.590 
16:35	12.6	12.6	12.6	53	-1.2	0	2	315	0.00	30.590 
16:40	13.1	13.1	13.1	52	-1.2	0	2	315	0.00	30.590 
16:45	13.3	13.3	13.3	51	-1.4	1	3	315	0.00	30.580 
16:50	13.5	13.5	13.5	50	-1.6	0	3	315	0.00	30.580 
16:55	13.5	13.5	13.5	50	-1.6	0	2	315	0.00	30.580 
17:00	13.6	13.6	13.6	50	-1.5	0	2	315	0.00	30.575 
17:05	13.8	13.8	13.8	49	-1.8	0	2	315	0.00	30.575 
17:10	13.6	13.6	13.6	50	-1.5	0	4	292	0.00	30.575 
17:15	13.6	13.6	13.6	50	-1.5	0	2	292	0.00	30.573 
17:20	13.5	13.5	13.5	50	-1.6	0	1	292	0.00	30.573 
17:25	13.5	13.5	13.5	50	-1.6	0	1	292	0.00	30.573 
17:30	13.5	13.5	13.5	50	-1.6	0	1	292	0.00	30.569 
17:35	13.1	13.1	13.1	50	-2.0	1	3	292	0.00	30.569 
17:40	12.9	12.9	12.9	51	-1.8	0	2	292	0.00	30.569 
17:45	12.9	12.9	12.9	51	-1.8	0	3	292	0.00	30.569 
17:50	12.8	12.8	12.8	51	-1.9	0	2	292	0.00	30.569 
17:55	12.6	12.6	12.6	52	-1.6	0	2	292	0.00	30.569 
18:00	12.4	12.4	12.4	52	-1.8	0	2	292	0.00	30.561 
18:05	12.3	12.3	12.3	53	-1.5	0	2	292	0.00	30.561 
18:10	12.1	12.1	12.1	53	-1.7	0	1	292	0.00	30.561 
18:15	11.9	11.9	11.9	53	-1.9	0	1	292	0.00	30.556 
18:20	11.7	11.7	11.7	54	-1.7	0	2	292	0.00	30.556 
18:25	11.6	11.6	11.6	54	-1.8	0	1	292	0.00	30.556 
18:30	11.4	11.4	11.4	54	-2.0	0	1	292	0.00	30.543 
18:35	11.2	11.2	11.2	55	-1.8	0	1	292	0.00	30.543 
18:40	11.1	11.1	11.1	56	-1.5	0	2	292	0.00	30.543 
18:45	10.9	10.9	10.9	56	-1.7	0	1	292	0.00	30.538 
18:50	10.7	10.7	10.7	56	-1.9	0	1	292	0.00	30.538 
18:55	10.5	10.5	10.5	56	-2.1	0	0	---	0.00	30.538 
19:00	10.0	10.0	10.0	57	-2.2	0	1	292	0.00	30.538 
19:05	9.5	9.5	9.5	58	-2.3	0	0	---	0.00	30.538 
19:10	8.8	8.8	8.8	58	-2.9	0	0	---	0.00	30.538 
19:15	8.4	8.4	8.4	59	-2.9	0	0	---	0.00	30.528 
19:20	8.1	8.1	8.1	60	-2.9	0	0	---	0.00	30.528 
19:25	7.7	7.7	7.7	60	-3.3	0	0	---	0.00	30.528 
19:30	7.6	7.6	7.6	61	-3.0	0	0	---	0.00	30.525 
19:35	7.2	7.2	7.2	61	-3.4	0	0	---	0.00	30.525 
19:40	7.0	7.0	7.0	62	-3.2	0	1	292	0.00	30.525 
19:45	6.9	6.9	6.9	62	-3.3	0	0	---	0.00	30.524 
19:50	6.7	6.7	6.7	62	-3.5	0	0	---	0.00	30.524 
19:55	6.5	6.5	6.5	63	-3.4	0	0	---	0.00	30.524 
20:00	6.5	6.5	6.5	63	-3.4	0	0	---	0.00	30.515 
20:05	6.3	6.3	6.3	63	-3.6	0	0	---	0.00	30.515 
20:10	6.0	6.0	6.0	63	-3.8	0	0	---	0.00	30.515 
20:15	5.8	5.8	5.8	64	-3.7	0	0	---	0.00	30.504 
20:20	5.4	5.4	5.4	64	-4.1	0	0	---	0.00	30.504 
20:25	5.2	5.2	5.2	65	-4.0	0	0	---	0.00	30.504 
20:30	5.0	5.0	5.0	65	-4.2	0	0	---	0.00	30.494 
20:35	4.8	4.8	4.8	65	-4.3	0	0	---	0.00	30.494 
20:40	4.8	4.8	4.8	66	-4.0	0	0	---	0.00	30.494 
20:45	4.8	4.8	4.8	66	-4.0	0	0	---	0.00	30.487 
20:50	4.7	4.7	4.7	66	-4.1	0	1	292	0.00	30.487 
20:55	4.7	4.7	4.7	66	-4.1	0	0	---	0.00	30.487 
21:00	4.5	4.5	4.5	66	-4.3	0	0	---	0.00	30.478 
21:05	4.3	4.3	4.3	66	-4.5	0	0	---	0.00	30.478 
21:10	4.1	4.1	4.1	66	-4.7	0	0	---	0.00	30.478 
21:15	3.9	3.9	3.9	66	-4.9	0	0	---	0.00	30.473 
21:20	3.7	3.7	3.7	67	-4.8	0	0	---	0.00	30.473 
21:25	3.5	3.5	3.5	67	-5.0	0	0	---	0.00	30.473 
21:30	3.5	3.5	3.5	67	-5.0	0	1	292	0.00	30.463 
21:35	3.4	3.4	3.4	67	-5.1	0	0	---	0.00	30.463 
21:40	3.4	3.4	3.4	67	-5.1	0	1	292	0.00	30.463 
21:45	3.4	3.4	3.4	68	-4.7	0	0	---	0.00	30.460 
21:50	3.2	3.2	3.2	68	-4.9	0	0	---	0.00	30.460 
21:55	3.2	3.2	3.2	68	-4.9	0	0	---	0.00	30.460 
22:00	3.0	3.0	3.0	68	-5.1	0	0	---	0.00	30.455 
22:05	3.0	3.0	3.0	68	-5.1	0	0	---	0.00	30.455 
22:10	2.8	2.8	2.8	69	-5.0	0	0	---	0.00	30.455 
22:15	2.8	2.8	2.8	69	-5.0	0	0	---	0.00	30.437 
22:20	2.8	2.8	2.8	69	-5.0	0	1	292	0.00	30.437 
22:25	2.8	2.8	2.8	70	-4.7	0	1	292	0.00	30.437 
22:30	3.0	3.0	3.0	70	-4.5	0	1	292	0.00	30.426 
22:35	3.4	3.4	3.4	71	-3.9	0	1	292	0.00	30.426 
22:40	3.5	3.5	3.5	71	-3.8	0	1	292	0.00	30.426 
22:45	3.9	3.9	3.9	71	-3.4	0	1	292	0.00	30.423 
22:50	4.1	4.1	4.1	71	-3.2	0	1	292	0.00	30.423 
22:55	4.3	4.3	4.3	71	-3.0	0	1	292	0.00	30.423 
23:00	4.3	4.3	4.3	71	-3.0	0	1	292	0.00	30.418 
23:05	4.3	4.3	4.3	71	-3.0	0	1	292	0.00	30.418 
23:10	4.3	4.3	4.3	71	-3.0	0	0	---	0.00	30.418 
23:15	4.5	4.5	4.5	71	-2.8	0	1	292	0.00	30.405 
23:20	4.5	4.5	4.5	72	-2.5	0	1	292	0.00	30.405 
23:25	4.3	4.3	4.3	72	-2.7	0	0	---	0.00	30.405 
23:30	4.3	4.3	4.3	72	-2.7	0	0	---	0.00	30.398 
23:35	4.3	4.3	4.3	72	-2.7	0	1	292	0.00	30.398 
23:40	4.3	4.3	4.3	72	-2.7	0	1	292	0.00	30.398 
23:45	4.3	4.3	4.3	72	-2.7	0	0	---	0.00	30.391 
23:50	4.3	4.3	4.3	72	-2.7	0	0	---	0.00	30.391 
23:55	4.1	4.1	4.1	72	-2.9	0	0	---	0.00	30.391 

CoCoRaHS
IN-AL-39
A2 Web Hosting
Creative Commons License
GoDaddy
search engine by freefind advanced

loaded 2018-11-15 14:25:45 • last modified 2010-11-18 10:43:29
Privacy PolicyDisclaimer
• wx.awcolley.com is powered by PmWiki v.2002016 •
• all content (unless otherwise noted) © 2018 A W Colley